< < Back
Terminal Aerodrome Forecast


Current Version              Previous Versions:   1  2  3  4  5  6  7  8  9  

Terminal Aerodrome Forecast

546
FTUS44 KMOB 242300
TAFMOB
TAF
KMOB 242326Z 2500/2524 33003KT P6SM SKC
     FM251500 01007KT P6SM SKC=



Latest METAR

402
SAUS80 KWBC 250200 RRA
MTRMOB
METAR KMOB 250156Z 33004KT 10SM CLR 13/10 A3008 RMK AO2 SLP184
T01280100


USA.gov is the U.S. government's official web portal to all federal, state and local government web resources and services.